createdAt,value
2018-07-11T00:01:04.220Z,100466.89
2018-07-11T00:03:44.811Z,100473.12
2018-07-11T00:06:14.308Z,100470.66
2018-07-11T00:08:42.814Z,100467.98
2018-07-11T00:11:11.922Z,100464.26
2018-07-11T00:13:41.756Z,100466.20
2018-07-11T00:16:10.204Z,100469.30
2018-07-11T00:18:38.646Z,100454.73
2018-07-11T00:21:07.229Z,100457.30
2018-07-11T00:23:35.796Z,100456.44
2018-07-11T00:26:04.475Z,100453.93
2018-07-11T00:28:32.922Z,100452.79
2018-07-11T00:31:02.042Z,100455.40
2018-07-11T00:33:30.786Z,100453.00
2018-07-11T00:35:59.265Z,100463.29
2018-07-11T00:38:27.891Z,100454.39
2018-07-11T00:40:56.374Z,100452.83
2018-07-11T00:43:24.814Z,100455.93
2018-07-11T00:45:53.499Z,100451.41
2018-07-11T00:48:22.063Z,100451.02
2018-07-11T00:50:50.632Z,100449.82
2018-07-11T00:53:21.425Z,100450.53
2018-07-11T00:55:49.952Z,100450.95
2018-07-11T00:58:26.443Z,100445.16
2018-07-11T01:01:13.069Z,100452.45
2018-07-11T01:03:58.013Z,100456.44
2018-07-11T01:06:26.481Z,100453.23
2018-07-11T01:08:58.000Z,100455.34
2018-07-11T01:11:27.938Z,100453.61
2018-07-11T01:13:56.419Z,100451.42
2018-07-11T01:16:24.969Z,100454.73
2018-07-11T01:19:05.641Z,100456.02
2018-07-11T01:21:34.993Z,100453.09
2018-07-11T01:24:03.494Z,100459.88
2018-07-11T01:26:34.138Z,100454.28
2018-07-11T01:29:02.768Z,100455.11
2018-07-11T01:31:31.209Z,100451.71
2018-07-11T01:34:00.097Z,100443.13
2018-07-11T01:36:28.977Z,100443.48
2018-07-11T01:38:58.787Z,100447.16
2018-07-11T01:41:27.846Z,100442.59
2018-07-11T01:43:56.432Z,100447.25
2018-07-11T01:46:25.650Z,100446.67
2018-07-11T01:48:54.173Z,100435.55
2018-07-11T01:51:32.448Z,100432.50
2018-07-11T01:54:00.916Z,100427.71
2018-07-11T01:56:29.508Z,100429.41
2018-07-11T01:58:58.173Z,100423.05
2018-07-11T02:01:26.676Z,100425.17
2018-07-11T02:03:55.156Z,100419.20
2018-07-11T02:06:23.665Z,100417.02
2018-07-11T02:08:52.177Z,100417.91
2018-07-11T02:11:20.608Z,100413.64
2018-07-11T02:13:49.119Z,100411.17
2018-07-11T02:16:17.624Z,100407.45
2018-07-11T02:18:46.170Z,100405.37
2018-07-11T02:21:14.613Z,100410.32
2018-07-11T02:23:43.165Z,100408.59
2018-07-11T02:26:11.621Z,100399.56
2018-07-11T02:28:40.147Z,100411.19
2018-07-11T02:31:08.753Z,100409.84
2018-07-11T02:33:37.240Z,100413.11
2018-07-11T02:36:05.795Z,100416.91
2018-07-11T02:38:34.224Z,100415.05
2018-07-11T02:41:02.653Z,100416.33
2018-07-11T02:43:31.223Z,100414.73
2018-07-11T02:45:59.928Z,100406.22
2018-07-11T02:48:28.445Z,100412.95
2018-07-11T02:50:56.891Z,100408.62
2018-07-11T02:53:25.467Z,100411.67
2018-07-11T02:55:54.414Z,100407.92
2018-07-11T02:58:22.919Z,100408.41
2018-07-11T03:00:51.339Z,100410.48
2018-07-11T03:03:19.932Z,100413.99
2018-07-11T03:05:48.737Z,100408.02
2018-07-11T03:08:18.050Z,100412.52
2018-07-11T03:10:47.131Z,100415.08
2018-07-11T03:13:19.055Z,100410.27
2018-07-11T03:15:47.640Z,100405.20
2018-07-11T03:18:16.171Z,100409.08
2018-07-11T03:20:44.746Z,100410.91
2018-07-11T03:23:13.312Z,100414.83
2018-07-11T03:25:41.864Z,100419.48
2018-07-11T03:28:10.300Z,100416.20
2018-07-11T03:30:38.810Z,100415.31
2018-07-11T03:33:07.549Z,100418.74
2018-07-11T03:35:36.003Z,100426.96
2018-07-11T03:38:04.483Z,100426.00
2018-07-11T03:40:32.969Z,100428.97
2018-07-11T03:43:01.519Z,100425.35
2018-07-11T03:46:00.703Z,100428.56
2018-07-11T03:48:29.186Z,100419.61
2018-07-11T03:50:57.744Z,100421.15
2018-07-11T03:53:26.199Z,100422.85
2018-07-11T03:55:54.673Z,100424.72
2018-07-11T03:58:23.081Z,100422.30
2018-07-11T04:00:51.526Z,100430.84
2018-07-11T04:03:19.922Z,100427.67
2018-07-11T04:05:48.409Z,100431.64
2018-07-11T04:08:16.898Z,100431.39
2018-07-11T04:10:46.095Z,100434.16
2018-07-11T04:13:18.091Z,100429.43
2018-07-11T04:15:46.675Z,100430.78
2018-07-11T04:18:20.377Z,100432.30
2018-07-11T04:20:48.938Z,100437.40
2018-07-11T04:23:17.429Z,100439.07
2018-07-11T04:25:45.941Z,100442.86
2018-07-11T04:28:14.452Z,100443.98
2018-07-11T04:30:42.876Z,100439.94
2018-07-11T04:33:11.665Z,100443.34
2018-07-11T04:35:40.144Z,100444.02
2018-07-11T04:38:08.921Z,100445.62
2018-07-11T04:40:37.603Z,100448.06
2018-07-11T04:43:06.137Z,100455.64
2018-07-11T04:45:34.761Z,100458.98
2018-07-11T04:48:03.380Z,100461.00
2018-07-11T04:50:31.940Z,100460.48
2018-07-11T04:53:02.495Z,100454.90
2018-07-11T04:55:31.820Z,100456.47
2018-07-11T04:58:00.275Z,100456.05
2018-07-11T05:00:28.796Z,100447.95
2018-07-11T05:02:57.272Z,100447.64
2018-07-11T05:05:25.894Z,100453.41
2018-07-11T05:07:54.637Z,100445.91
2018-07-11T05:10:23.231Z,100450.53
2018-07-11T05:12:51.804Z,100453.77
2018-07-11T05:15:20.229Z,100439.20
2018-07-11T05:17:48.690Z,100444.98
2018-07-11T05:20:17.337Z,100445.15
2018-07-11T05:22:45.816Z,100438.66
2018-07-11T05:25:14.197Z,100438.48
2018-07-11T05:27:42.614Z,100440.84
2018-07-11T05:30:11.128Z,100440.19
2018-07-11T05:32:39.665Z,100435.50
2018-07-11T05:35:10.931Z,100445.92
2018-07-11T05:37:39.410Z,100449.05
2018-07-11T05:40:07.930Z,100448.84
2018-07-11T05:42:36.440Z,100449.18
2018-07-11T05:45:04.937Z,100454.29
2018-07-11T05:47:33.360Z,100453.52
2018-07-11T05:50:01.873Z,100457.72
2018-07-11T05:52:30.411Z,100461.41
2018-07-11T05:54:59.024Z,100464.85
2018-07-11T05:57:27.506Z,100469.75
2018-07-11T05:59:55.954Z,100473.61
2018-07-11T06:02:24.582Z,100468.39
2018-07-11T06:04:53.054Z,100479.52
2018-07-11T06:07:21.558Z,100476.31
2018-07-11T06:09:50.028Z,100476.89
2018-07-11T06:12:18.499Z,100477.53
2018-07-11T06:14:47.089Z,100477.62
2018-07-11T06:17:15.635Z,100480.00
2018-07-11T06:19:44.172Z,100475.38
2018-07-11T06:22:12.664Z,100465.34
2018-07-11T06:24:41.270Z,100471.59
2018-07-11T06:27:09.722Z,100470.30
2018-07-11T06:29:38.236Z,100476.71
2018-07-11T06:32:06.719Z,100468.30
2018-07-11T06:34:35.244Z,100471.06
2018-07-11T06:37:03.778Z,100473.62
2018-07-11T06:39:32.315Z,100473.66
2018-07-11T06:42:00.794Z,100471.16
2018-07-11T06:44:29.324Z,100472.13
2018-07-11T06:46:57.916Z,100479.44
2018-07-11T06:49:26.431Z,100480.06
2018-07-11T06:51:54.895Z,100479.77
2018-07-11T06:54:23.449Z,100484.72
2018-07-11T06:56:51.890Z,100488.00
2018-07-11T06:59:20.399Z,100488.75
2018-07-11T07:01:48.925Z,100483.94
2018-07-11T07:04:17.321Z,100485.13
2018-07-11T07:06:45.848Z,100483.91
2018-07-11T07:09:14.499Z,100488.91
2018-07-11T07:11:42.900Z,100483.50
2018-07-11T07:14:11.468Z,100486.34
2018-07-11T07:16:40.051Z,100472.64
2018-07-11T07:19:08.621Z,100470.48
2018-07-11T07:21:37.134Z,100465.22
2018-07-11T07:24:05.692Z,100460.33
2018-07-11T07:26:34.213Z,100465.80
2018-07-11T07:29:02.697Z,100464.30
2018-07-11T07:31:31.264Z,100462.33
2018-07-11T07:33:59.729Z,100462.64
2018-07-11T07:36:28.133Z,100460.58
2018-07-11T07:38:56.619Z,100464.09
2018-07-11T07:41:25.079Z,100460.44
2018-07-11T07:43:53.713Z,100468.05
2018-07-11T07:46:22.153Z,100458.03
2018-07-11T07:48:50.706Z,100451.26
2018-07-11T07:51:19.243Z,100451.05
2018-07-11T07:53:47.708Z,100450.45
2018-07-11T07:56:16.188Z,100448.72
2018-07-11T07:58:44.643Z,100448.84
2018-07-11T08:01:13.285Z,100443.27
2018-07-11T08:03:41.710Z,100445.98
2018-07-11T08:06:10.379Z,100443.64
2018-07-11T08:08:38.829Z,100440.25
2018-07-11T08:11:07.541Z,100434.50
2018-07-11T08:13:36.017Z,100431.59
2018-07-11T08:16:04.539Z,100433.19
2018-07-11T08:18:33.389Z,100427.69
2018-07-11T08:21:01.833Z,100432.16
2018-07-11T08:23:42.471Z,100431.45
2018-07-11T08:26:22.474Z,100432.34
2018-07-11T08:31:07.305Z,100427.63
2018-07-11T08:33:46.953Z,100426.27
2018-07-11T08:38:28.315Z,100424.14
2018-07-11T08:41:08.056Z,100416.27
2018-07-11T08:46:55.290Z,100422.22
2018-07-11T08:49:43.957Z,100432.52
2018-07-11T08:54:32.059Z,100434.64
2018-07-11T08:57:10.606Z,100426.31
2018-07-11T09:01:54.011Z,100424.72
2018-07-11T09:04:33.752Z,100428.44
2018-07-11T09:07:13.443Z,100425.58
2018-07-11T09:11:57.677Z,100432.36
2018-07-11T09:14:48.830Z,100430.39
2018-07-11T09:17:40.869Z,100427.00
2018-07-11T09:20:20.459Z,100426.59
2018-07-11T09:23:23.437Z,100420.45
2018-07-11T09:25:52.041Z,100425.73
2018-07-11T09:28:20.632Z,100425.73
2018-07-11T09:30:49.166Z,100429.41
2018-07-11T09:33:17.793Z,100423.94
2018-07-11T09:35:46.323Z,100423.58
2018-07-11T09:38:14.802Z,100417.68
2018-07-11T09:40:43.435Z,100421.72
2018-07-11T09:43:12.483Z,100425.95
2018-07-11T09:45:41.119Z,100426.61
2018-07-11T09:48:09.701Z,100427.43
2018-07-11T09:50:38.491Z,100430.03
2018-07-11T09:53:07.110Z,100427.33
2018-07-11T09:55:35.756Z,100426.25
2018-07-11T09:58:05.671Z,100433.14
2018-07-11T10:00:39.274Z,100428.10
2018-07-11T10:03:07.807Z,100424.61
2018-07-11T10:05:36.604Z,100432.95
2018-07-11T10:08:07.931Z,100436.39
2018-07-11T10:10:36.518Z,100430.22
2018-07-11T10:13:05.014Z,100431.30
2018-07-11T10:15:33.465Z,100429.33
2018-07-11T10:18:01.953Z,100433.43
2018-07-11T10:20:30.411Z,100418.52
2018-07-11T10:22:59.013Z,100425.51
2018-07-11T10:25:27.496Z,100425.51
2018-07-11T10:28:06.968Z,100418.95
2018-07-11T10:30:35.536Z,100418.73
2018-07-11T10:33:04.651Z,100412.24
2018-07-11T10:35:33.339Z,100410.66
2018-07-11T10:38:01.893Z,100406.53
2018-07-11T10:40:30.379Z,100414.49
2018-07-11T10:42:58.901Z,100413.28
2018-07-11T10:45:27.376Z,100411.95
2018-07-11T10:47:55.851Z,100411.97
2018-07-11T10:50:24.470Z,100416.06
2018-07-11T10:52:53.074Z,100418.26
2018-07-11T10:55:21.788Z,100422.38
2018-07-11T10:57:50.712Z,100413.39
2018-07-11T11:00:36.656Z,100410.44
2018-07-11T11:02:55.359Z,100412.92
2018-07-11T11:05:24.012Z,100411.91
2018-07-11T11:07:53.210Z,100410.81
2018-07-11T11:10:21.668Z,100410.34
2018-07-11T11:12:50.343Z,100405.89
2018-07-11T11:15:18.945Z,100409.98
2018-07-11T11:17:47.539Z,100410.39
2018-07-11T11:20:16.102Z,100409.08
2018-07-11T11:22:45.099Z,100406.00
2018-07-11T11:25:13.687Z,100395.79
2018-07-11T11:27:42.363Z,100404.28
2018-07-11T11:30:11.308Z,100406.53
2018-07-11T11:32:40.496Z,100412.36
2018-07-11T11:35:09.146Z,100396.13
2018-07-11T11:37:37.780Z,100404.92
2018-07-11T11:40:06.402Z,100393.67
2018-07-11T11:42:35.289Z,100401.67
2018-07-11T11:45:04.197Z,100398.77
2018-07-11T11:47:32.777Z,100399.69
2018-07-11T11:50:01.371Z,100399.98
2018-07-11T11:52:29.873Z,100403.05
2018-07-11T11:54:58.536Z,100405.45
2018-07-11T11:57:27.112Z,100397.00
2018-07-11T11:59:55.696Z,100405.42
2018-07-11T12:02:24.210Z,100402.02
2018-07-11T12:04:52.664Z,100399.02
2018-07-11T12:07:21.147Z,100392.20
2018-07-11T12:09:49.875Z,100400.36
2018-07-11T12:12:18.459Z,100404.74
2018-07-11T12:14:47.033Z,100395.67
2018-07-11T12:17:15.505Z,100395.06
2018-07-11T12:19:45.517Z,100398.88
2018-07-11T12:22:20.277Z,100392.77
2018-07-11T12:24:48.828Z,100386.13
2018-07-11T12:27:17.718Z,100384.70
2018-07-11T12:29:46.259Z,100390.45
2018-07-11T12:32:14.843Z,100387.58
2018-07-11T12:34:47.698Z,100392.48
2018-07-11T12:37:17.666Z,100393.45
2018-07-11T12:39:46.883Z,100381.05
2018-07-11T12:42:15.723Z,100380.13
2018-07-11T12:44:44.273Z,100371.75
2018-07-11T12:47:18.119Z,100367.97
2018-07-11T12:49:46.750Z,100375.83
2018-07-11T12:52:15.287Z,100372.75
2018-07-11T12:54:43.907Z,100380.91
2018-07-11T12:57:12.438Z,100379.87
2018-07-11T12:59:40.983Z,100378.08
2018-07-11T13:02:09.445Z,100363.19
2018-07-11T13:04:37.926Z,100365.56
2018-07-11T13:07:06.780Z,100355.20
2018-07-11T13:09:35.233Z,100351.77
2018-07-11T13:12:03.631Z,100350.58
2018-07-11T13:14:32.124Z,100344.61
2018-07-11T13:17:00.645Z,100342.61
2018-07-11T13:19:29.128Z,100341.39
2018-07-11T13:21:57.616Z,100340.25
2018-07-11T13:24:26.252Z,100336.66
2018-07-11T13:26:54.808Z,100335.13
2018-07-11T13:29:23.361Z,100330.98
2018-07-11T13:31:51.862Z,100329.18
2018-07-11T13:34:20.457Z,100327.75
2018-07-11T13:36:49.790Z,100333.06
2018-07-11T13:39:22.362Z,100319.33
2018-07-11T13:41:51.736Z,100330.27
2018-07-11T13:44:20.220Z,100325.36
2018-07-11T13:46:48.805Z,100327.55
2018-07-11T13:49:17.261Z,100318.00
2018-07-11T13:51:45.790Z,100325.29
2018-07-11T13:54:14.401Z,100330.94
2018-07-11T13:56:43.074Z,100338.87
2018-07-11T13:59:11.574Z,100334.00
2018-07-11T14:01:40.263Z,100328.59
2018-07-11T14:04:08.629Z,100335.19
2018-07-11T14:06:37.079Z,100333.45
2018-07-11T14:09:05.763Z,100332.41
2018-07-11T14:11:34.260Z,100329.67
2018-07-11T14:14:02.838Z,100326.23
2018-07-11T14:16:31.368Z,100317.12
2018-07-11T14:18:59.809Z,100321.44
2018-07-11T14:21:28.284Z,100322.31
2018-07-11T14:23:56.744Z,100320.39
2018-07-11T14:26:25.346Z,100320.41
2018-07-11T14:28:54.247Z,100328.89
2018-07-11T14:31:34.892Z,100328.41
2018-07-11T14:34:06.059Z,100324.64
2018-07-11T14:36:35.156Z,100329.52
2018-07-11T14:39:04.956Z,100331.92
2018-07-11T14:41:33.630Z,100322.39
2018-07-11T14:44:02.658Z,100330.32
2018-07-11T14:46:31.725Z,100326.06
2018-07-11T14:49:00.587Z,100329.25
2018-07-11T14:51:29.232Z,100320.38
2018-07-11T14:53:58.089Z,100313.36
2018-07-11T14:56:26.652Z,100312.06
2018-07-11T14:58:57.343Z,100313.53
2018-07-11T15:01:26.110Z,100317.48
2018-07-11T15:03:54.714Z,100314.75
2018-07-11T15:06:23.997Z,100316.02
2018-07-11T15:08:53.803Z,100312.43
2018-07-11T15:11:22.826Z,100313.55
2018-07-11T15:13:51.491Z,100317.12
2018-07-11T15:16:20.514Z,100317.73
2018-07-11T15:18:49.799Z,100322.90
2018-07-11T15:21:18.536Z,100318.25
2018-07-11T15:23:47.068Z,100311.74
2018-07-11T15:26:15.548Z,100311.08
2018-07-11T15:28:44.151Z,100308.06
2018-07-11T15:31:13.114Z,100299.68
2018-07-11T15:33:41.660Z,100295.86
2018-07-11T15:36:10.276Z,100304.94
2018-07-11T15:38:38.995Z,100299.40
2018-07-11T15:41:07.953Z,100296.27
2018-07-11T15:43:36.438Z,100307.80
2018-07-11T15:46:05.845Z,100307.15
2018-07-11T15:48:34.395Z,100307.84
2018-07-11T15:51:02.999Z,100306.98
2018-07-11T15:53:31.625Z,100299.90
2018-07-11T15:56:04.715Z,100307.21
2018-07-11T15:58:37.617Z,100310.63
2018-07-11T16:01:08.412Z,100313.61
2018-07-11T16:03:38.756Z,100315.53
2018-07-11T16:06:08.518Z,100319.13
2018-07-11T16:08:37.051Z,100321.65
2018-07-11T16:11:05.628Z,100326.20
2018-07-11T16:13:34.154Z,100333.45
2018-07-11T16:16:02.779Z,100342.69
2018-07-11T16:18:31.815Z,100338.45
2018-07-11T16:21:00.650Z,100339.47
2018-07-11T16:23:29.228Z,100342.20
2018-07-11T16:25:57.849Z,100346.93
2018-07-11T16:28:26.728Z,100342.94
2018-07-11T16:30:55.392Z,100342.20
2018-07-11T16:33:24.041Z,100351.03
2018-07-11T16:35:55.415Z,100353.24
2018-07-11T16:38:24.199Z,100350.52
2018-07-11T16:40:54.246Z,100357.77
2018-07-11T16:43:22.863Z,100360.17
2018-07-11T16:45:52.318Z,100366.20
2018-07-11T16:48:21.592Z,100369.19
2018-07-11T16:50:50.193Z,100376.79
2018-07-11T16:53:18.999Z,100384.95
2018-07-11T16:55:47.667Z,100380.84
2018-07-11T16:58:18.688Z,100377.44
2018-07-11T17:00:50.651Z,100379.14
2018-07-11T17:03:19.082Z,100379.95
2018-07-11T17:05:51.456Z,100380.53
2018-07-11T17:08:31.921Z,100384.84
2018-07-11T17:11:11.945Z,100386.16
2018-07-11T17:13:42.467Z,100397.66
2018-07-11T17:16:10.988Z,100395.82
2018-07-11T17:18:44.998Z,100399.28
2018-07-11T17:21:29.681Z,100394.42
2018-07-11T17:24:05.790Z,100390.81
2018-07-11T17:26:34.414Z,100386.92
2018-07-11T17:29:03.569Z,100388.90
2018-07-11T17:31:34.140Z,100395.23
2018-07-11T17:34:02.597Z,100397.22
2018-07-11T17:36:34.127Z,100396.70
2018-07-11T17:39:04.987Z,100403.81
2018-07-11T17:41:34.531Z,100400.63
2018-07-11T17:44:03.938Z,100403.16
2018-07-11T17:46:35.827Z,100401.00
2018-07-11T17:49:15.339Z,100392.93
2018-07-11T17:51:54.327Z,100393.14
2018-07-11T17:54:25.387Z,100393.25
2018-07-11T17:56:57.891Z,100393.09
2018-07-11T17:59:40.991Z,100389.04
2018-07-11T18:02:14.470Z,100394.39
2018-07-11T18:06:54.594Z,100393.04
2018-07-11T18:09:24.300Z,100395.77
2018-07-11T18:11:55.199Z,100400.35
2018-07-11T18:14:34.276Z,100384.71
2018-07-11T18:19:14.125Z,100390.89
2018-07-11T18:22:10.597Z,100378.57
2018-07-11T18:24:49.945Z,100370.23
2018-07-11T18:27:43.299Z,100373.69
2018-07-11T18:30:24.259Z,100373.06
2018-07-11T18:33:06.036Z,100366.81
2018-07-11T18:35:45.271Z,100362.86
2018-07-11T18:38:21.366Z,100362.09
2018-07-11T18:41:08.901Z,100364.62
2018-07-11T18:43:49.616Z,100356.75
2018-07-11T18:46:24.640Z,100344.80
2018-07-11T18:49:05.789Z,100344.56
2018-07-11T18:51:43.836Z,100350.27
2018-07-11T18:54:16.632Z,100375.17
2018-07-11T18:57:06.206Z,100387.61
2018-07-11T19:00:21.490Z,100396.52
2018-07-11T19:02:57.843Z,100401.25
2018-07-11T19:05:36.751Z,100389.34
2018-07-11T19:08:19.023Z,100381.36
2018-07-11T19:11:03.328Z,100393.95
2018-07-11T19:13:33.801Z,100384.78
2018-07-11T19:16:14.433Z,100383.02
2018-07-11T19:18:56.024Z,100386.75
2018-07-11T19:21:36.320Z,100392.29
2018-07-11T19:24:08.275Z,100392.50
2018-07-11T19:28:49.093Z,100408.59
2018-07-11T19:31:39.609Z,100403.69
2018-07-11T19:36:26.653Z,100408.88
2018-07-11T19:39:04.892Z,100416.89
2018-07-11T19:41:56.252Z,100418.70
2018-07-11T19:44:33.555Z,100419.07
2018-07-11T19:47:16.533Z,100422.17
2018-07-11T19:50:00.604Z,100433.22
2018-07-11T19:52:41.066Z,100434.45
2018-07-11T19:55:22.076Z,100435.38
2018-07-11T19:57:50.550Z,100435.68
2018-07-11T20:00:19.027Z,100437.11
2018-07-11T20:02:47.619Z,100446.83
2018-07-11T20:05:16.495Z,100445.80
2018-07-11T20:07:45.059Z,100437.28
2018-07-11T20:10:13.655Z,100440.91
2018-07-11T20:12:42.143Z,100449.16
2018-07-11T20:15:10.843Z,100463.11
2018-07-11T20:17:39.304Z,100458.84
2018-07-11T20:20:07.975Z,100453.13
2018-07-11T20:22:36.467Z,100454.84
2018-07-11T20:25:05.188Z,100461.63
2018-07-11T20:27:33.631Z,100466.11
2018-07-11T20:30:02.254Z,100466.00
2018-07-11T20:32:30.768Z,100459.55
2018-07-11T20:34:59.380Z,100458.96
2018-07-11T20:37:27.973Z,100460.25
2018-07-11T20:39:56.733Z,100465.18
2018-07-11T20:42:25.337Z,100461.08
2018-07-11T20:44:53.876Z,100454.48
2018-07-11T20:47:22.457Z,100457.11
2018-07-11T20:49:51.043Z,100459.59
2018-07-11T20:52:19.493Z,100461.27
2018-07-11T20:54:47.997Z,100460.31
2018-07-11T20:57:16.700Z,100455.59
2018-07-11T20:59:56.309Z,100459.46
2018-07-11T21:02:35.930Z,100461.53
2018-07-11T21:07:19.941Z,100459.87
2018-07-11T21:10:06.851Z,100463.20
2018-07-11T21:14:58.471Z,100465.69
2018-07-11T21:17:43.177Z,100459.26
2018-07-11T21:20:11.753Z,100452.41
2018-07-11T21:22:41.150Z,100449.49
2018-07-11T21:25:09.838Z,100453.45
2018-07-11T21:27:38.583Z,100453.53
2018-07-11T21:30:07.035Z,100462.59
2018-07-11T21:32:35.524Z,100466.83
2018-07-11T21:35:04.014Z,100472.86
2018-07-11T21:37:32.447Z,100473.36
2018-07-11T21:40:01.186Z,100481.88
2018-07-11T21:42:29.646Z,100484.41
2018-07-11T21:44:58.173Z,100482.30
2018-07-11T21:47:26.756Z,100475.94
2018-07-11T21:49:55.332Z,100480.19
2018-07-11T21:52:23.834Z,100478.40
2018-07-11T21:54:52.327Z,100481.94
2018-07-11T21:57:20.811Z,100478.56
2018-07-11T21:59:49.256Z,100471.05
2018-07-11T22:02:17.710Z,100469.30
2018-07-11T22:04:46.175Z,100470.83
2018-07-11T22:07:14.602Z,100470.17
2018-07-11T22:09:43.335Z,100473.73
2018-07-11T22:12:11.814Z,100479.25
2018-07-11T22:14:40.304Z,100480.79
2018-07-11T22:17:20.177Z,100482.50
2018-07-11T22:19:47.444Z,100491.59
2018-07-11T22:22:14.756Z,100488.90
2018-07-11T22:24:42.043Z,100498.42
2018-07-11T22:27:09.353Z,100492.80
2018-07-11T22:29:36.702Z,100499.92
2018-07-11T22:32:04.165Z,100504.41
2018-07-11T22:34:31.436Z,100509.56
2018-07-11T22:36:58.728Z,100507.70
2018-07-11T22:39:26.005Z,100508.77
2018-07-11T22:41:53.262Z,100513.47
2018-07-11T22:44:20.506Z,100505.70
2018-07-11T22:46:47.802Z,100496.69
2018-07-11T22:49:15.055Z,100492.37
2018-07-11T22:51:42.299Z,100490.28
2018-07-11T22:54:09.564Z,100491.70
2018-07-11T22:56:36.798Z,100486.50
2018-07-11T22:59:04.093Z,100486.98
2018-07-11T23:01:31.343Z,100482.69
2018-07-11T23:03:58.588Z,100484.08
2018-07-11T23:06:25.846Z,100490.06
2018-07-11T23:08:53.163Z,100490.91
2018-07-11T23:11:20.396Z,100488.33
2018-07-11T23:13:47.647Z,100479.81
2018-07-11T23:16:14.897Z,100477.72
2018-07-11T23:18:42.169Z,100479.72
2018-07-11T23:21:09.479Z,100472.19
2018-07-11T23:23:36.747Z,100477.42
2018-07-11T23:26:03.983Z,100485.27
2018-07-11T23:28:31.213Z,100486.29
2018-07-11T23:30:58.482Z,100484.96
2018-07-11T23:33:25.744Z,100487.23
2018-07-11T23:35:53.009Z,100490.38
2018-07-11T23:38:20.264Z,100491.66
2018-07-11T23:40:47.560Z,100486.62
2018-07-11T23:43:14.808Z,100483.22
2018-07-11T23:45:42.146Z,100482.77
2018-07-11T23:48:09.397Z,100485.03
2018-07-11T23:50:36.670Z,100478.03
2018-07-11T23:53:03.943Z,100477.75
2018-07-11T23:55:31.191Z,100478.98
2018-07-11T23:57:58.425Z,100485.01
